Time;durP1;ratioP1;P1;durP2;ratioP2;P2;SDS_P1;SDS_P2;PMS_P1;PMS_P2;Temp;Humidity;BMP_temperature;BMP_pressure;BME280_temperature;BME280_humidity;BME280_pressure;Samples;Min_cycle;Max_cycle;Signal;HPM_P1;HPM_P2
2022/06/20 00:00:27;;;;;;;8.05;3.27;;;;;;;18.94;59.03;100134.41;1756690;80;21411;-69
2022/06/20 00:02:55;;;;;;;5.78;2.85;;;;;;;18.91;59.12;100129.41;1819384;78;21027;-69
2022/06/20 00:05:26;;;;;;;6.05;2.85;;;;;;;18.88;59.28;100134.63;1821524;78;20984;-69
2022/06/20 00:07:54;;;;;;;7.55;2.87;;;;;;;18.83;59.40;100133.02;1821434;78;21968;-69
2022/06/20 00:10:23;;;;;;;6.10;3.08;;;;;;;18.79;59.59;100132.20;1821477;78;20972;-69
2022/06/20 00:12:50;;;;;;;3.90;3.02;;;;;;;18.75;59.70;100130.91;1821511;78;21517;-69
2022/06/20 00:15:29;;;;;;;4.97;2.87;;;;;;;18.71;59.83;100127.74;1821521;77;20929;-69
2022/06/20 00:17:58;;;;;;;4.25;3.05;;;;;;;18.68;59.90;100124.10;1812845;78;21705;-69
2022/06/20 00:20:26;;;;;;;4.33;3.12;;;;;;;18.65;59.94;100116.45;1774470;80;20986;-69
2022/06/20 00:22:54;;;;;;;4.12;2.65;;;;;;;18.64;60.01;100116.59;1774438;80;20988;-70
2022/06/20 00:25:22;;;;;;;3.85;2.70;;;;;;;18.58;60.06;100117.63;1774558;80;21009;-69
2022/06/20 00:27:48;;;;;;;5.35;2.67;;;;;;;18.55;60.12;100119.84;1774506;80;21009;-69
2022/06/20 00:30:16;;;;;;;5.05;2.92;;;;;;;18.53;60.08;100124.04;1775746;80;20937;-69
2022/06/20 00:32:43;;;;;;;3.15;2.65;;;;;;;18.51;60.10;100121.20;1774494;81;21797;-69
2022/06/20 00:35:09;;;;;;;4.08;2.90;;;;;;;18.50;60.09;100122.20;1776950;78;21051;-69
2022/06/20 00:37:36;;;;;;;5.65;2.95;;;;;;;18.48;60.13;100121.05;1780409;80;20968;-69
2022/06/20 00:40:05;;;;;;;5.08;2.75;;;;;;;18.46;60.19;100123.08;1780502;80;21484;-69
2022/06/20 00:42:33;;;;;;;6.97;2.87;;;;;;;18.43;60.24;100116.77;1782148;80;21486;-69
2022/06/20 00:45:01;;;;;;;4.58;2.90;;;;;;;18.40;60.30;100114.42;1780838;80;21542;-69
2022/06/20 00:47:32;;;;;;;4.05;2.77;;;;;;;18.40;60.35;100113.59;1780438;80;20984;-69
2022/06/20 00:50:05;;;;;;;4.53;3.00;;;;;;;18.39;60.37;100114.61;1780844;80;21428;-70
2022/06/20 00:52:43;;;;;;;3.95;2.90;;;;;;;18.37;60.42;100109.95;1778873;78;21004;-69
2022/06/20 00:55:18;;;;;;;3.55;2.92;;;;;;;18.35;60.45;100113.31;1774641;81;21566;-69
2022/06/20 00:57:53;;;;;;;4.22;2.70;;;;;;;18.33;60.53;100115.31;1774519;81;21952;-69
2022/06/20 01:00:24;;;;;;;3.52;2.90;;;;;;;18.30;60.58;100116.00;1774034;80;21426;-69
2022/06/20 01:02:55;;;;;;;4.70;3.25;;;;;;;18.28;60.59;100115.86;1750362;80;21037;-69
2022/06/20 01:05:42;;;;;;;4.67;2.60;;;;;;;18.26;60.63;100113.38;1774628;80;21495;-69
2022/06/20 01:08:26;;;;;;;4.92;2.60;;;;;;;18.22;60.70;100116.05;1775039;80;20930;-69
2022/06/20 01:11:06;;;;;;;3.45;2.70;;;;;;;18.18;60.78;100125.95;1818084;78;22898;-70
2022/06/20 01:13:33;;;;;;;3.55;2.70;;;;;;;18.14;60.80;100121.45;1813813;78;21092;-69
2022/06/20 01:16:17;;;;;;;3.85;2.35;;;;;;;18.10;60.92;100120.15;1780722;80;21039;-69
2022/06/20 01:18:46;;;;;;;4.85;2.40;;;;;;;18.07;61.09;100117.84;1757410;80;20967;-69
2022/06/20 01:21:19;;;;;;;3.37;2.60;;;;;;;18.01;61.27;100127.38;1780656;80;20994;-72
2022/06/20 01:24:10;;;;;;;4.20;2.45;;;;;;;18.01;61.32;100133.23;1781268;80;21812;-69
2022/06/20 01:26:52;;;;;;;3.52;2.27;;;;;;;18.00;61.30;100131.06;1781187;78;20949;-69
2022/06/20 01:29:18;;;;;;;4.45;2.47;;;;;;;17.98;61.30;100129.08;1780954;80;21483;-69
2022/06/20 01:31:54;;;;;;;5.47;2.80;;;;;;;17.95;61.32;100129.44;1777887;80;21412;-70
2022/06/20 01:34:21;;;;;;;5.00;2.60;;;;;;;17.95;61.32;100133.92;1777742;80;20996;-69
2022/06/20 01:39:38;;;;;;;3.35;2.50;;;;;;;17.92;61.30;100132.44;1777896;80;20976;-69
2022/06/20 01:42:20;;;;;;;5.42;2.50;;;;;;;17.91;61.28;100134.78;1747183;80;20949;-69
2022/06/20 01:45:03;;;;;;;;;;;;;;;17.89;61.29;100130.12;1811171;79;20960;-69
2022/06/20 01:47:30;;;;;;;3.65;2.50;;;;;;;17.87;61.31;100132.15;1812738;79;20213;-69
2022/06/20 01:50:04;;;;;;;3.55;2.50;;;;;;;17.84;61.34;100131.64;1812726;79;21962;-69
2022/06/20 01:52:35;;;;;;;3.00;2.58;;;;;;;17.84;61.37;100135.15;1783733;79;21494;-70
2022/06/20 01:55:13;;;;;;;3.35;2.72;;;;;;;17.84;61.37;100133.81;1778001;80;21056;-69
2022/06/20 01:57:43;;;;;;;4.83;2.50;;;;;;;17.83;61.39;100139.33;1777601;80;21064;-69
2022/06/20 02:00:19;;;;;;;4.37;2.67;;;;;;;17.80;61.46;100129.01;1779071;79;20996;-69
2022/06/20 02:02:50;;;;;;;3.25;2.70;;;;;;;17.76;61.58;100135.22;1777479;80;21929;-69
2022/06/20 02:05:20;;;;;;;4.70;2.50;;;;;;;17.72;61.71;100132.03;1777818;80;21047;-69
2022/06/20 02:07:46;;;;;;;4.10;2.47;;;;;;;17.68;61.89;100138.71;1777580;80;20989;-69
2022/06/20 02:10:18;;;;;;;5.22;2.33;;;;;;;17.64;62.02;100137.38;1777633;80;21454;-69
2022/06/20 02:12:46;;;;;;;3.37;2.50;;;;;;;17.62;62.09;100143.41;1777853;80;20941;-69
2022/06/20 02:15:18;;;;;;;4.45;2.50;;;;;;;17.62;62.11;100146.58;1777561;80;21813;-69
2022/06/20 02:17:45;;;;;;;3.90;2.62;;;;;;;17.61;62.19;100147.59;1793384;79;20952;-69
2022/06/20 02:20:15;;;;;;;2.77;2.45;;;;;;;17.58;62.30;100142.59;1812579;79;21008;-69
2022/06/20 02:22:42;;;;;;;3.72;2.62;;;;;;;17.55;62.38;100145.59;1774341;79;20988;-69
2022/06/20 02:25:13;;;;;;;5.55;2.60;;;;;;;17.53;62.49;100137.76;1812859;79;20934;-69
2022/06/20 02:27:44;;;;;;;5.15;2.90;;;;;;;17.51;62.58;100138.44;1812919;79;21852;-69
2022/06/20 02:30:11;;;;;;;5.33;2.90;;;;;;;17.49;62.68;100137.78;1812337;79;21051;-69
2022/06/20 02:32:49;;;;;;;6.17;2.67;;;;;;;17.50;62.69;100142.63;1812698;79;20957;-69
2022/06/20 02:35:18;;;;;;;5.40;2.50;;;;;;;17.49;62.75;100140.45;1810544;79;20944;-69
2022/06/20 02:37:45;;;;;;;5.80;2.70;;;;;;;17.49;62.86;100140.45;1812579;79;21419;-69
2022/06/20 02:40:15;;;;;;;3.95;2.55;;;;;;;17.46;63.02;100136.77;1812597;79;21924;-69
2022/06/20 02:43:03;;;;;;;7.58;2.77;;;;;;;17.43;63.19;100140.62;1812470;79;20986;-69
2022/06/20 02:45:31;;;;;;;4.90;2.30;;;;;;;17.41;63.29;100148.48;1774250;79;21019;-69
2022/06/20 02:48:00;;;;;;;3.35;2.77;;;;;;;17.39;63.47;100144.66;1783443;79;20991;-69
2022/06/20 02:50:29;;;;;;;3.65;2.55;;;;;;;17.39;63.59;100142.49;1812935;79;20988;-69
2022/06/20 02:53:01;;;;;;;4.15;2.62;;;;;;;17.40;63.71;100144.16;1771835;79;21944;-70
2022/06/20 02:55:28;;;;;;;4.35;2.60;;;;;;;17.41;63.76;100141.81;1812882;79;20996;-69
2022/06/20 02:57:58;;;;;;;3.62;2.50;;;;;;;17.43;63.85;100142.47;1812641;79;20937;-69
2022/06/20 03:00:30;;;;;;;3.42;2.55;;;;;;;17.45;63.80;100143.13;1812624;79;20977;-69
2022/06/20 03:03:00;;;;;;;4.45;2.75;;;;;;;17.48;63.85;100144.64;1812653;79;20918;-69
2022/06/20 03:05:28;;;;;;;3.25;2.35;;;;;;;17.49;63.83;100141.79;1784343;79;21822;-70
2022/06/20 03:07:54;;;;;;;5.53;2.65;;;;;;;17.51;63.80;100138.94;1807589;79;21008;-69
2022/06/20 03:10:28;;;;;;;3.30;2.50;;;;;;;17.52;63.80;100134.77;1777561;80;21032;-69
2022/06/20 03:12:56;;;;;;;4.60;2.45;;;;;;;17.57;63.72;100137.77;1777545;80;20945;-69
2022/06/20 03:15:22;;;;;;;5.42;2.77;;;;;;;17.64;63.66;100140.55;1747272;80;21514;-69
2022/06/20 03:17:50;;;;;;;2.67;2.30;;;;;;;17.68;63.56;100133.38;1777544;80;21927;-69
2022/06/20 03:20:19;;;;;;;3.20;2.67;;;;;;;17.73;63.44;100136.88;1777370;80;21547;-70
2022/06/20 03:23:01;;;;;;;3.60;2.50;;;;;;;17.77;63.36;100134.71;1777833;80;20993;-69
2022/06/20 03:25:28;;;;;;;5.58;2.60;;;;;;;17.81;63.31;100135.51;1778458;79;20996;-69
2022/06/20 03:27:56;;;;;;;3.42;2.40;;;;;;;17.89;63.24;100141.32;1777505;80;20985;-69
2022/06/20 03:30:35;;;;;;;3.95;2.40;;;;;;;17.93;63.14;100138.11;1777427;80;22596;-70
2022/06/20 03:33:06;;;;;;;2.90;2.60;;;;;;;17.98;63.06;100134.92;1777518;80;20933;-69
2022/06/20 03:35:33;;;;;;;3.10;2.30;;;;;;;18.02;62.88;100130.88;1777609;80;21000;-69
2022/06/20 03:38:03;;;;;;;3.50;2.62;;;;;;;18.09;62.66;100121.67;1772759;80;21076;-69
2022/06/20 03:40:30;;;;;;;4.25;2.60;;;;;;;18.15;62.60;100123.65;1772691;80;21103;-69
2022/06/20 03:42:58;;;;;;;4.25;2.47;;;;;;;18.21;62.52;100125.09;1778575;79;21844;-71
2022/06/20 03:45:27;;;;;;;8.43;2.40;;;;;;;18.28;62.28;100131.39;1777513;80;21094;-69
2022/06/20 03:48:05;;;;;;;2.60;2.08;;;;;;;18.34;62.16;100124.52;1777561;80;20993;-69
2022/06/20 03:50:38;;;;;;;4.78;2.40;;;;;;;18.42;61.78;100128.95;1777524;80;21001;-70
2022/06/20 03:53:25;;;;;;;3.40;2.10;;;;;;;18.48;61.54;100130.41;1777536;80;21015;-69
2022/06/20 03:56:20;;;;;;;3.60;2.50;;;;;;;18.57;61.40;100130.69;1746812;80;22628;-69
2022/06/20 03:59:12;;;;;;;2.92;2.22;;;;;;;18.68;61.09;100135.31;1753696;79;21396;-70
2022/06/20 04:02:08;;;;;;;2.95;2.15;;;;;;;18.77;60.62;100129.70;1808746;79;20937;-70
2022/06/20 04:04:50;;;;;;;4.55;2.33;;;;;;;18.88;60.56;100133.79;1811979;79;20945;-69
2022/06/20 04:07:24;;;;;;;5.15;2.27;;;;;;;18.99;60.01;100136.53;1812879;79;20984;-69
2022/06/20 04:12:56;;;;;;;3.87;2.50;;;;;;;19.21;58.74;100141.52;1812588;78;20992;-69
2022/06/20 04:15:47;;;;;;;3.98;2.70;;;;;;;19.34;58.40;100143.88;1812699;79;20977;-69
2022/06/20 04:18:28;;;;;;;6.10;2.08;;;;;;;19.45;57.93;100139.39;1776466;80;20972;-69
2022/06/20 04:21:12;;;;;;;2.77;2.40;;;;;;;19.58;57.61;100138.77;1777491;80;21000;-69
2022/06/20 04:24:17;;;;;;;3.77;2.60;;;;;;;19.70;57.20;100137.80;1777534;80;21442;-69
2022/06/20 04:27:07;;;;;;;4.37;2.30;;;;;;;19.80;56.82;100132.98;1777441;80;20972;-69
2022/06/20 04:29:41;;;;;;;2.35;1.98;;;;;;;19.93;56.73;100128.28;1777809;80;21048;-69
2022/06/20 04:32:40;;;;;;;3.80;2.45;;;;;;;20.04;56.52;100133.66;1779484;79;20957;-69
2022/06/20 04:35:15;;;;;;;2.92;2.40;;;;;;;20.15;56.15;100127.80;1705055;83;21004;-70
2022/06/20 04:37:47;;;;;;;3.47;2.25;;;;;;;20.26;55.93;100134.00;1749828;82;21780;-70
2022/06/20 04:40:36;;;;;;;5.75;2.17;;;;;;;20.37;55.75;100131.35;1750059;82;21059;-70
2022/06/20 04:43:23;;;;;;;5.08;2.30;;;;;;;20.48;55.71;100130.87;1726497;82;21007;-69
2022/06/20 04:46:04;;;;;;;4.22;2.25;;;;;;;20.58;55.07;100134.89;1749860;82;21062;-70
2022/06/20 04:48:31;;;;;;;2.58;1.90;;;;;;;20.69;54.82;100133.53;1747432;82;21000;-70
2022/06/20 04:51:02;;;;;;;2.85;2.22;;;;;;;20.81;54.50;100136.00;1783927;78;22444;-70
2022/06/20 04:53:32;;;;;;;3.00;2.40;;;;;;;20.93;54.49;100133.61;1756361;80;20861;-70
2022/06/20 04:56:00;;;;;;;2.72;2.47;;;;;;;21.06;54.32;100130.22;1780914;80;20941;-70
2022/06/20 04:58:32;;;;;;;3.50;2.27;;;;;;;21.16;54.01;100133.38;1780951;80;21009;-70
2022/06/20 05:00:58;;;;;;;6.53;2.17;;;;;;;21.27;53.87;100130.18;1779695;80;20940;-70
2022/06/20 05:03:39;;;;;;;3.35;2.22;;;;;;;21.38;53.08;100130.13;1780972;80;21968;-70
2022/06/20 05:06:06;;;;;;;5.10;2.30;;;;;;;21.50;52.86;100130.40;1779583;80;20929;-70
2022/06/20 05:08:40;;;;;;;3.10;2.20;;;;;;;21.59;52.73;100118.45;1780321;79;21353;-70
2022/06/20 05:11:11;;;;;;;3.77;2.08;;;;;;;21.70;52.47;100125.44;1780733;80;20945;-70
2022/06/20 05:13:46;;;;;;;4.72;2.15;;;;;;;21.82;52.37;100123.02;1781079;80;20949;-70
2022/06/20 05:16:18;;;;;;;6.08;2.20;;;;;;;21.95;52.01;100131.13;1780770;80;21045;-70
2022/06/20 05:18:49;;;;;;;3.87;1.92;;;;;;;22.12;51.44;100135.67;1780898;80;20937;-70
2022/06/20 05:21:23;;;;;;;4.05;2.25;;;;;;;22.22;51.41;100125.86;1780696;80;21000;-70
2022/06/20 05:23:57;;;;;;;2.33;1.90;;;;;;;22.35;50.87;100125.88;1783694;78;21003;-70
2022/06/20 05:26:34;;;;;;;4.08;2.00;;;;;;;22.49;50.46;100122.70;1821678;78;21522;-70
2022/06/20 05:29:04;;;;;;;4.22;1.95;;;;;;;22.63;49.70;100119.50;1787735;78;22249;-70
2022/06/20 05:31:37;;;;;;;3.98;2.00;;;;;;;22.75;49.35;100110.59;1821348;78;21530;-70
2022/06/20 05:34:18;;;;;;;4.33;2.08;;;;;;;22.90;49.24;100113.11;1821794;78;21470;-70
2022/06/20 05:36:59;;;;;;;3.15;2.00;;;;;;;23.04;49.19;100105.83;1821046;78;20956;-70
2022/06/20 05:39:47;;;;;;;3.87;2.00;;;;;;;23.20;49.23;100107.27;1787387;78;20937;-70
2022/06/20 05:42:16;;;;;;;1.98;1.82;;;;;;;23.35;48.74;100104.62;1799326;78;21443;-69
2022/06/20 05:44:43;;;;;;;3.72;1.98;;;;;;;23.51;48.17;100095.77;1789176;80;20972;-70
2022/06/20 05:47:34;;;;;;;3.15;2.10;;;;;;;23.64;48.07;100099.78;1789249;80;20948;-70
2022/06/20 05:50:43;;;;;;;5.17;2.22;;;;;;;23.77;47.84;100094.87;1789491;80;21425;-70
2022/06/20 05:53:16;;;;;;;2.25;1.92;;;;;;;23.92;46.88;100092.19;1789304;80;21413;-70
2022/06/20 05:55:47;;;;;;;2.25;1.77;;;;;;;24.11;47.44;100080.16;1789042;80;21470;-70
2022/06/20 05:58:18;;;;;;;2.33;1.82;;;;;;;24.27;45.92;100076.94;1796619;78;20988;-70
2022/06/20 06:00:45;;;;;;;5.70;1.65;;;;;;;24.41;44.23;100073.12;1821825;78;21537;-70
2022/06/20 06:03:22;;;;;;;2.65;1.62;;;;;;;24.55;43.71;100069.80;1821512;78;21560;-70
2022/06/20 06:06:00;;;;;;;3.10;1.77;;;;;;;24.70;42.76;100067.58;1821899;78;21411;-70
2022/06/20 06:08:42;;;;;;;1.90;1.40;;;;;;;24.89;43.38;100072.50;1821524;78;22400;-70
2022/06/20 06:11:39;;;;;;;5.62;1.57;;;;;;;25.06;42.10;100064.67;1787493;78;21525;-70
2022/06/20 06:14:29;;;;;;;2.15;1.27;;;;;;;25.21;40.95;100062.98;1821667;78;20925;-70
2022/06/20 06:17:02;;;;;;;2.40;1.30;;;;;;;25.35;40.56;100051.77;1789964;78;21000;-70
2022/06/20 06:19:44;;;;;;;2.33;1.40;;;;;;;25.54;39.82;100043.11;1789600;80;21114;-70
2022/06/20 06:22:26;;;;;;;2.25;1.30;;;;;;;25.65;40.09;100043.69;1789329;80;22525;-70
2022/06/20 06:24:59;;;;;;;1.60;1.22;;;;;;;25.74;40.06;100035.30;1789301;80;20990;-70
2022/06/20 06:27:32;;;;;;;2.20;1.30;;;;;;;25.85;38.39;100039.92;1789813;80;20949;-70
2022/06/20 06:30:06;;;;;;;2.72;1.45;;;;;;;25.96;39.03;100021.54;1789358;80;21050;-70
2022/06/20 06:32:42;;;;;;;4.05;1.40;;;;;;;26.02;39.66;100021.98;1758646;80;20995;-70
2022/06/20 06:35:26;;;;;;;2.27;1.10;;;;;;;26.12;39.36;100023.59;1791185;80;21817;-70
2022/06/20 06:38:13;;;;;;;2.90;1.15;;;;;;;26.22;38.80;100004.90;1791362;80;21455;-71
2022/06/20 06:40:54;;;;;;;1.22;1.10;;;;;;;26.34;37.99;100010.32;1791165;80;20999;-70
2022/06/20 06:43:29;;;;;;;1.30;1.20;;;;;;;26.47;37.32;100003.37;1791424;80;21034;-70
2022/06/20 06:46:00;;;;;;;1.65;1.17;;;;;;;26.59;36.91;99993.89;1791197;80;20984;-70
2022/06/20 06:48:41;;;;;;;3.72;1.05;;;;;;;26.67;36.76;99990.84;1790873;80;21897;-71
2022/06/20 06:51:22;;;;;;;1.35;1.00;;;;;;;26.74;36.25;99983.42;1780600;80;20944;-70
2022/06/20 06:54:02;;;;;;;1.40;0.85;;;;;;;26.82;36.00;99983.03;1791494;80;20952;-70
2022/06/20 06:56:40;;;;;;;2.22;1.10;;;;;;;26.92;34.76;99993.80;1779470;80;20949;-70
2022/06/20 06:59:21;;;;;;;1.27;1.10;;;;;;;27.04;35.30;99997.37;1791594;80;21141;-70
2022/06/20 07:01:50;;;;;;;2.33;1.20;;;;;;;27.15;36.75;99987.02;1755235;80;22674;-70
2022/06/20 07:04:25;;;;;;;3.33;1.02;;;;;;;27.28;36.33;99988.63;1791450;78;20936;-70
2022/06/20 07:07:03;;;;;;;3.05;1.17;;;;;;;27.34;36.33;99988.50;1790883;80;21000;-70
2022/06/20 07:09:45;;;;;;;2.85;1.12;;;;;;;27.36;35.31;99986.36;1791061;80;21075;-70
2022/06/20 07:12:30;;;;;;;3.25;1.10;;;;;;;27.38;35.60;99992.89;1789974;80;21467;-70
2022/06/20 07:15:07;;;;;;;3.47;1.17;;;;;;;27.40;35.75;99994.83;1791257;80;21906;-70
2022/06/20 07:17:49;;;;;;;9.55;1.17;;;;;;;27.45;35.00;99986.81;1788589;80;21448;-70
2022/06/20 07:20:17;;;;;;;1.15;0.90;;;;;;;27.47;34.16;99981.95;1791131;80;20950;-70
2022/06/20 07:22:43;;;;;;;2.15;1.07;;;;;;;27.51;34.07;99980.95;1791979;78;21447;-70
2022/06/20 07:25:15;;;;;;;1.30;1.07;;;;;;;27.50;34.46;99971.14;1791107;80;21027;-70
2022/06/20 07:27:56;;;;;;;1.10;1.00;;;;;;;27.55;34.67;99962.58;1791013;80;21939;-70
2022/06/20 07:30:26;;;;;;;1.12;0.93;;;;;;;27.58;34.80;99963.45;1791084;80;21000;-70
2022/06/20 07:33:00;;;;;;;1.60;1.00;;;;;;;27.69;34.55;99960.95;1784898;80;20964;-70
2022/06/20 07:35:34;;;;;;;1.10;1.00;;;;;;;27.75;33.70;99960.80;1780475;80;20957;-70
2022/06/20 07:38:25;;;;;;;2.00;0.90;;;;;;;27.80;34.14;99951.94;1780511;80;21502;-70
2022/06/20 07:40:59;;;;;;;1.57;1.02;;;;;;;27.82;33.84;99962.02;1780372;80;21906;-70
2022/06/20 07:43:37;;;;;;;2.05;0.98;;;;;;;27.83;32.68;99952.80;1780648;80;20937;-70
2022/06/20 07:46:11;;;;;;;2.27;1.00;;;;;;;27.86;32.44;99947.70;1780827;80;21035;-70
2022/06/20 07:48:41;;;;;;;2.30;0.90;;;;;;;27.94;32.79;99941.86;1778675;80;20949;-70
2022/06/20 07:51:33;;;;;;;0.90;0.85;;;;;;;28.07;32.60;99939.88;1749706;82;21441;-70
2022/06/20 07:54:11;;;;;;;1.10;1.00;;;;;;;28.16;32.63;99929.72;1749818;82;22454;-70
2022/06/20 07:56:46;;;;;;;2.00;0.98;;;;;;;28.27;32.89;99938.84;1752525;78;20938;-70
2022/06/20 07:59:22;;;;;;;2.47;1.12;;;;;;;28.30;31.57;99934.33;1821495;78;20988;-70
2022/06/20 08:02:09;;;;;;;1.37;0.95;;;;;;;28.31;31.38;99954.98;1787652;78;20921;-70
2022/06/20 08:04:37;;;;;;;1.40;0.98;;;;;;;28.28;31.08;99928.33;1787536;78;21010;-70
2022/06/20 08:07:13;;;;;;;1.70;1.00;;;;;;;28.35;31.75;99934.92;1821779;78;22577;-70
2022/06/20 08:09:59;;;;;;;2.67;1.00;;;;;;;28.39;31.39;99935.55;1821381;78;20929;-71
2022/06/20 08:12:49;;;;;;;2.65;1.10;;;;;;;28.42;31.80;99929.61;1821832;78;20924;-70
2022/06/20 08:15:26;;;;;;;1.07;0.88;;;;;;;28.57;31.74;99924.09;1792044;78;21402;-70
2022/06/20 08:17:54;;;;;;;3.02;0.95;;;;;;;28.68;30.90;99924.53;1780607;80;20989;-71
2022/06/20 08:20:22;;;;;;;2.35;1.00;;;;;;;28.66;30.75;99923.94;1780605;79;21879;-70
2022/06/20 08:23:06;;;;;;;4.47;1.10;;;;;;;28.66;30.65;99931.59;1780495;79;20988;-70
2022/06/20 08:25:42;;;;;;;3.40;0.80;;;;;;;28.71;30.92;99922.66;1780241;80;20976;-70
2022/06/20 08:28:14;;;;;;;1.45;1.00;;;;;;;28.78;31.31;99915.16;1780798;80;21000;-70
2022/06/20 08:31:09;;;;;;;2.30;1.02;;;;;;;28.80;30.95;99915.72;1780942;78;21067;-71
2022/06/20 08:34:18;;;;;;;1.22;0.90;;;;;;;28.80;30.99;99907.02;1774095;80;21851;-70
2022/06/20 08:36:58;;;;;;;1.27;1.05;;;;;;;28.82;31.74;99904.59;1740910;81;21007;-70
2022/06/20 08:39:42;;;;;;;1.87;1.10;;;;;;;28.91;31.61;99901.20;1758055;81;21000;-70
2022/06/20 08:42:26;;;;;;;2.62;1.00;;;;;;;29.02;31.48;99896.70;1757953;81;20963;-70
2022/06/20 08:45:28;;;;;;;1.77;1.10;;;;;;;29.08;30.86;99886.18;1758043;81;21533;-70
2022/06/20 08:48:00;;;;;;;1.35;1.02;;;;;;;29.15;30.51;99892.79;1757845;81;23172;-70
2022/06/20 08:50:49;;;;;;;1.35;0.95;;;;;;;29.19;31.08;99898.81;1758224;81;21446;-70
2022/06/20 08:54:08;;;;;;;1.92;0.90;;;;;;;29.26;30.51;99903.52;1758036;81;20973;-70
2022/06/20 08:57:34;;;;;;;1.67;1.00;;;;;;;29.31;30.49;99901.37;1757944;81;21011;-70
2022/06/20 09:00:11;;;;;;;1.05;0.90;;;;;;;29.45;30.34;99881.39;1758020;81;21038;-69
2022/06/20 09:03:02;;;;;;;5.47;1.15;;;;;;;29.56;29.25;99875.81;1726495;81;21818;-70
2022/06/20 09:06:03;;;;;;;2.27;1.10;;;;;;;29.61;29.52;99875.84;1755765;81;20923;-70
2022/06/20 09:09:26;;;;;;;1.20;0.90;;;;;;;29.67;29.18;99874.53;1731652;82;21350;-70
2022/06/20 09:12:32;;;;;;;0.93;0.85;;;;;;;29.70;29.76;99869.92;1752063;82;21421;-69
2022/06/20 09:15:13;;;;;;;1.75;0.98;;;;;;;30.01;28.30;99873.70;1752459;81;20960;-70
2022/06/20 09:17:55;;;;;;;1.35;0.93;;;;;;;29.95;28.49;99862.51;1752306;80;22313;-70
2022/06/20 09:20:35;;;;;;;3.27;1.10;;;;;;;30.02;28.58;99869.38;1752057;82;21042;-70
2022/06/20 09:23:19;;;;;;;3.10;1.00;;;;;;;30.15;27.86;99862.13;1752201;81;21002;-70
2022/06/20 09:26:06;;;;;;;1.22;0.80;;;;;;;30.15;27.86;99862.13;1748513;82;21431;-70
2022/06/20 09:29:20;;;;;;;1.25;0.90;;;;;;;30.19;27.37;99863.23;1752748;81;20987;-71
2022/06/20 09:32:10;;;;;;;1.05;0.93;;;;;;;30.21;27.67;99858.91;1706149;81;22025;-75
2022/06/20 09:34:50;;;;;;;7.90;3.95;;;;;;;30.50;27.75;99860.70;1752358;81;20933;-74
2022/06/20 09:38:00;;;;;;;33.70;30.50;;;;;;;30.50;27.75;99860.70;1752064;82;20992;-72
2022/06/20 09:40:42;;;;;;;14.87;12.53;;;;;;;30.52;27.00;99840.80;1750849;80;21406;-73
2022/06/20 09:43:33;;;;;;;7.15;5.60;;;;;;;30.54;27.95;99842.71;1755817;81;21019;-72
2022/06/20 09:46:26;;;;;;;2.35;1.00;;;;;;;30.71;27.18;99852.91;1752137;80;22589;-73
2022/06/20 09:49:14;;;;;;;;;;;;;;;30.76;26.54;99843.91;1754666;80;21013;-78
2022/06/20 09:52:08;;;;;;;6.60;1.00;;;;;;;30.75;26.30;99879.08;1750911;82;20408;-73
2022/06/20 09:55:32;;;;;;;8.03;7.33;;;;;;;30.71;26.38;99854.81;1752377;81;21473;-72
2022/06/20 09:58:07;;;;;;;4.83;1.50;;;;;;;30.73;25.79;99859.45;1775741;80;20996;-74
2022/06/20 10:01:10;;;;;;;2.05;0.80;;;;;;;30.71;26.36;99850.18;1757589;79;22785;-70
2022/06/20 10:04:01;;;;;;;2.33;1.00;;;;;;;30.81;26.46;99841.22;1713181;80;21348;-72
2022/06/20 10:06:48;;;;;;;3.75;1.00;;;;;;;30.99;25.85;99852.18;1747817;81;21704;-70
2022/06/20 10:09:43;;;;;;;3.35;0.90;;;;;;;31.08;25.88;99842.38;1727444;80;20992;-69
2022/06/20 10:12:25;;;;;;;1.25;0.80;;;;;;;31.18;26.10;99830.67;1746669;82;20974;-70
2022/06/20 10:15:14;;;;;;;2.52;0.85;;;;;;;31.29;25.87;99828.25;1774516;80;22359;-72
2022/06/20 10:18:19;;;;;;;3.02;0.90;;;;;;;31.44;25.23;99847.90;1787597;79;21000;-70
2022/06/20 10:21:09;;;;;;;7.95;1.17;;;;;;;31.53;24.98;99839.44;1766062;80;20970;-69
2022/06/20 10:23:48;;;;;;;1.42;0.85;;;;;;;31.58;25.44;99830.72;1720693;82;20946;-69
2022/06/20 10:26:38;;;;;;;1.47;0.90;;;;;;;31.69;26.05;99823.89;1750671;80;20989;-69
2022/06/20 10:29:28;;;;;;;2.12;1.10;;;;;;;31.82;25.43;99820.06;1746552;82;21947;-69
2022/06/20 10:32:17;;;;;;;4.67;0.85;;;;;;;31.97;25.03;99818.42;1751317;80;21079;-70
2022/06/20 10:34:59;;;;;;;3.95;0.98;;;;;;;32.02;24.97;99817.84;1770343;80;21464;-70
2022/06/20 10:37:33;;;;;;;2.75;1.00;;;;;;;32.07;24.71;99831.51;1769453;80;21433;-70
2022/06/20 10:40:25;;;;;;;4.33;0.90;;;;;;;32.11;24.81;99819.47;1768530;79;21579;-68
2022/06/20 10:43:09;;;;;;;4.95;0.80;;;;;;;32.19;24.08;99832.56;1777075;80;22663;-70
2022/06/20 10:45:59;;;;;;;4.72;0.82;;;;;;;32.14;23.91;99831.23;1736033;80;20925;-69
2022/06/20 10:49:07;;;;;;;4.62;0.80;;;;;;;32.19;24.30;99827.09;1784163;79;20968;-69
2022/06/20 10:52:05;;;;;;;3.47;0.90;;;;;;;32.26;23.02;99835.02;1779747;79;20980;-70
2022/06/20 10:55:14;;;;;;;1.40;0.70;;;;;;;32.25;23.44;99827.37;1775582;79;21083;-70
2022/06/20 10:58:05;;;;;;;3.50;0.90;;;;;;;32.24;22.33;99832.56;1758246;80;22309;-69
2022/06/20 11:00:36;;;;;;;2.77;0.88;;;;;;;32.24;23.11;99835.84;1773516;79;21496;-72
2022/06/20 11:03:28;;;;;;;2.17;0.80;;;;;;;32.32;22.87;99813.41;1780595;79;20985;-69
2022/06/20 11:06:31;;;;;;;9.60;7.92;;;;;;;32.38;23.38;99809.58;1776569;79;21571;-71
2022/06/20 11:09:08;;;;;;;2.58;1.20;;;;;;;32.60;24.00;99803.19;1768821;80;20985;-70
2022/06/20 11:12:00;;;;;;;6.25;0.90;;;;;;;32.83;23.01;99807.73;1780054;79;22265;-70
2022/06/20 11:14:42;;;;;;;3.05;0.85;;;;;;;32.87;22.13;99797.88;1777604;79;20945;-69
2022/06/20 11:17:30;;;;;;;1.62;0.82;;;;;;;32.88;22.54;99791.30;1777466;79;21107;-70
2022/06/20 11:20:34;;;;;;;1.20;0.70;;;;;;;32.94;22.86;99786.08;1772215;79;20988;-69
2022/06/20 11:23:36;;;;;;;1.32;0.70;;;;;;;33.01;22.32;99768.80;1774865;79;21994;-69
2022/06/20 11:26:21;;;;;;;1.70;0.80;;;;;;;33.13;22.92;99765.70;1767605;79;21862;-70
2022/06/20 11:29:02;;;;;;;1.27;0.88;;;;;;;33.20;23.34;99768.38;1770129;80;20948;-72
2022/06/20 11:31:34;;;;;;;1.35;0.90;;;;;;;33.08;22.70;99772.02;1765517;79;21393;-71
2022/06/20 11:34:30;;;;;;;17.87;16.10;;;;;;;32.85;22.98;99789.14;1770093;79;21035;-71
2022/06/20 11:37:14;;;;;;;3.35;1.90;;;;;;;32.75;23.64;99777.69;1778065;79;20937;-72
2022/06/20 11:40:24;;;;;;;2.85;1.85;;;;;;;32.86;23.92;99783.94;1766580;79;21926;-69
2022/06/20 11:43:16;;;;;;;5.10;4.60;;;;;;;33.01;23.65;99769.62;1755605;79;21013;-68
2022/06/20 11:46:15;;;;;;;2.65;1.02;;;;;;;33.14;23.40;99774.98;1764810;79;21483;-70
2022/06/20 11:48:56;;;;;;;3.87;1.00;;;;;;;33.23;23.59;99769.73;1772325;79;21539;-71
2022/06/20 11:51:45;;;;;;;1.67;1.00;;;;;;;33.44;24.30;99775.31;1774974;79;21067;-69
2022/06/20 11:54:41;;;;;;;1.62;0.90;;;;;;;33.77;22.16;99770.06;1768522;79;21811;-71
2022/06/20 11:57:37;;;;;;;6.12;1.00;;;;;;;33.97;22.26;99774.02;1766000;79;21000;-70
2022/06/20 12:00:18;;;;;;;1.27;1.00;;;;;;;34.03;22.62;99776.12;1775276;79;21012;-69
2022/06/20 12:02:59;;;;;;;1.20;1.00;;;;;;;34.14;23.41;99772.97;1779633;79;20989;-68
2022/06/20 12:05:51;;;;;;;1.50;1.00;;;;;;;34.17;23.05;99759.81;1772238;79;20950;-71
2022/06/20 12:08:39;;;;;;;3.20;1.05;;;;;;;34.12;22.86;99762.86;1778138;80;21827;-73
2022/06/20 12:11:32;;;;;;;2.87;1.10;;;;;;;34.14;21.86;99750.23;1776969;80;21016;-72
2022/06/20 12:14:19;;;;;;;1.50;1.40;;;;;;;34.07;21.66;99740.20;1772277;80;20945;-71
2022/06/20 12:17:14;;;;;;;1.75;1.12;;;;;;;34.22;21.97;99730.95;1773620;80;20966;-71
2022/06/20 12:23:18;;;;;;;1.10;1.00;;;;;;;34.55;23.10;99720.92;1761208;79;21885;-71
2022/06/20 12:25:50;;;;;;;5.15;1.10;;;;;;;34.73;22.26;99725.03;1773999;80;20881;-75
2022/06/20 12:28:28;;;;;;;3.65;1.15;;;;;;;34.80;21.92;99716.44;1777411;80;21074;-72
2022/06/20 12:31:11;;;;;;;1.40;1.10;;;;;;;34.86;21.85;99718.56;1770295;80;21021;-70
2022/06/20 12:33:46;;;;;;;4.80;3.42;;;;;;;34.73;21.91;99716.80;1775262;80;20997;-70
2022/06/20 12:36:42;;;;;;;2.33;1.20;;;;;;;34.68;21.78;99711.97;1773960;80;21808;-73